Amityville, NY

6:38 AM EDT on May 27, 2015 (GMT -0400)
Massapequa Park - Westwood Section | | Change Station
CLOSE
Current Station
Personal Weather Station
Location: Massapequa Park, NY
Elevation: 43 ft
Nearby Weather Stations

Elev 43 ft 40.69 °N, 73.44 °W | Updated 7 seconds ago

Partly Cloudy
Partly Cloudy
62.8 °F
Feels Like 62.8 °F
N
1.1
Wind Variable Wind from SSW
Gusts 2.5 mph

Today
High -- | Low -- °F
--% Chance of Precip.
Yesterday
High -- | Low -- °F
Precip. -- in
5:27 AM 8:14 PM
Waxing Gibbous, 66% visible
Pressure 30.19 in
Visibility 10.0 miles
Clouds Scattered Clouds 5000 ft
Dew Point 60 °F
Humidity 89%
Rainfall 0.00 in
Snow Depth Not available.
UV 0 out of 12
Pollen 8.90 out of 12
Air Quality Not available.
Flu Activity Widespread
METAR KFRG 270953Z AUTO 20007KT 10SM SCT050 17/15 A3019 RMK AO2 SLP222 T01670150

More Conditions Fewer Conditions

Pressure 30.19 in
Visibility 10.0 miles
Clouds Scattered Clouds 5000 ft
Dew Point 60 °F
Humidity 89%
Rainfall 0.00 in
Snow Depth Not available.
UV 0 out of 12
Pollen 8.90 out of 12
Air Quality Not available.
Flu Activity Widespread
METAR KFRG 270953Z AUTO 20007KT 10SM SCT050 17/15 A3019 RMK AO2 SLP222 T01670150

More Conditions Fewer Conditions

10-Day Weather Forecast

Almanac

Astronomy

May. 27, 2015 Rise Set
Actual Time
Civil Twilight
Nautical Twilight
Astronomical Twilight
Moon
Length of Visible Light
Length of Day
Tomorrow will be .
, % of the Moon is Illuminated

Today's Extremes

State Highs State Lows

Community

WunderPhotos

Upload Photos

1,824,635 photos uploaded!

WunderBlogs® & News

Nearby

Air Quality

  Air Quality AQ Index Pollutant
Not available.

Snow Depth

Station Depth Elevation

Earthquake Activity

City Distance Mag. Time & Date
Minimum magnitude displayed is 2.5.

Coastal Water Temperatures

Place Temperature

Stations

Nearby Weather Stations

Station Location Temp. Windchill Dew Point Humidity Wind Precip. Elev Updated Type